Etusivu
METAR-TAF:

METAR-TAF

Lentoasemat :

Reno, Nevada, Yhdysvallat

Leveyspiiri: 39-40-05N, Pituuspiiri: 119-52-35W, korkeus merenpinnasta: 1539 m

Tämänhetkinen sää

Tämä raportti tehtiin 33 minuuttia sitten, kello 04.35 UTC
Tuuli 6 kn lännestä
Lämpötila 8°C
Kosteus 76%
Ilmanpaine 1015 hPa
Näkyvyys: 16.1 km
selkeää

METAR: KRTS 250435Z AUTO 26006KT 10SM CLR 08/04 A2997 RMK AO2

Aika: 22:08 (05:08 UTC)


TAF: puuttuu

Säähavainnot ja -ennusteet yli 4000 lentoasemalta (METAR- ja TAF-raportit).

Käytössä olevat sääasemat on merkitty karttaan keltaisilla ja punaisilla pisteillä.

Aseta hiiri pisteen päälle nähdäksesi sääaseman nimen.

Klikkaa sitten nähdäksesi säähavainnot ja -ennusteet.

Kartan vaihtaminen: klikkaa mustalla rastilla varustettuja vihreitä pisteitä, niin voit zoomata sisään; viivalla varustettua vihreää pistettä, niin voit zoomata ulos tai vihreitä nuolia, niin pääset viereisille kartoille.


METAR-TAF: